Time;durP1;ratioP1;P1;durP2;ratioP2;P2;SDS_P1;SDS_P2;PMS_P1;PMS_P2;Temp;Humidity;BMP_temperature;BMP_pressure;BME280_temperature;BME280_humidity;BME280_pressure;Samples;Min_cycle;Max_cycle;Signal;HPM_P1;HPM_P2
2022/03/08 00:00:43;;;;;;;5.07;2.03;;;1.30;99.90;;;;;;4986329;28;20062;-73
2022/03/08 00:03:08;;;;;;;3.70;2.30;;;1.30;99.90;;;;;;4985304;28;20474;-74
2022/03/08 00:05:34;;;;;;;3.45;2.33;;;1.30;99.90;;;;;;4986850;28;20957;-74
2022/03/08 00:08:00;;;;;;;3.47;1.98;;;1.40;99.90;;;;;;4985154;28;20042;-73
2022/03/08 00:10:26;;;;;;;2.10;1.92;;;1.30;99.90;;;;;;4983775;28;20480;-74
2022/03/08 00:12:52;;;;;;;3.53;2.00;;;1.30;99.90;;;;;;4985008;28;20046;-73
2022/03/08 00:15:22;;;;;;;6.78;1.90;;;1.40;99.90;;;;;;4980817;28;20518;-73
2022/03/08 00:17:48;;;;;;;5.25;2.22;;;1.40;99.90;;;;;;4989484;28;20459;-73
2022/03/08 00:20:14;;;;;;;4.00;2.35;;;1.40;99.90;;;;;;5008840;28;20084;-73
2022/03/08 00:22:41;;;;;;;2.50;2.00;;;1.40;99.90;;;;;;5028707;28;20049;-73
2022/03/08 00:25:08;;;;;;;4.55;1.95;;;1.40;99.90;;;;;;5004682;28;20053;-74
2022/03/08 00:27:35;;;;;;;2.22;1.98;;;1.40;99.90;;;;;;4985516;28;20077;-73
2022/03/08 00:30:00;;;;;;;2.65;1.95;;;1.50;99.90;;;;;;5005110;28;20061;-74
2022/03/08 00:32:26;;;;;;;2.60;2.13;;;1.50;99.90;;;;;;5002112;28;20396;-74
2022/03/08 00:34:52;;;;;;;3.28;2.17;;;1.50;99.90;;;;;;4991750;28;20573;-74
2022/03/08 00:37:18;;;;;;;4.78;2.20;;;1.50;99.90;;;;;;5004334;28;20129;-74
2022/03/08 00:39:44;;;;;;;6.63;2.40;;;1.50;99.90;;;;;;5004516;28;20123;-74
2022/03/08 00:42:11;;;;;;;2.55;2.30;;;1.50;99.90;;;;;;4991122;28;20134;-73
2022/03/08 00:44:42;;;;;;;7.13;1.90;;;1.50;99.90;;;;;;5019749;28;20561;-73
2022/03/08 00:47:09;;;;;;;5.22;2.10;;;1.40;99.90;;;;;;5007985;28;20421;-74
2022/03/08 00:49:36;;;;;;;4.38;2.58;;;1.40;99.90;;;;;;5007875;28;20056;-73
2022/03/08 00:52:02;;;;;;;2.80;2.30;;;1.30;99.90;;;;;;5005298;28;20056;-74
2022/03/08 00:54:28;;;;;;;3.95;2.35;;;1.20;99.90;;;;;;5001706;28;20057;-74
2022/03/08 00:56:54;;;;;;;5.50;2.50;;;1.20;99.90;;;;;;5022711;28;20038;-74
2022/03/08 00:59:21;;;;;;;3.17;2.53;;;1.10;99.90;;;;;;5004489;28;20038;-74
2022/03/08 01:01:47;;;;;;;4.05;2.75;;;1.10;99.90;;;;;;5005778;28;20096;-74
2022/03/08 01:04:12;;;;;;;7.15;2.88;;;1.10;99.90;;;;;;5017123;28;20064;-74
2022/03/08 01:06:40;;;;;;;2.80;2.50;;;1.10;99.90;;;;;;4990275;28;20136;-73
2022/03/08 01:09:05;;;;;;;3.42;2.42;;;1.10;99.90;;;;;;4996277;28;20053;-73
2022/03/08 01:11:32;;;;;;;3.97;2.58;;;1.10;99.90;;;;;;5008271;28;20136;-73
2022/03/08 01:13:58;;;;;;;7.10;3.20;;;1.10;99.90;;;;;;5022279;28;20049;-73
2022/03/08 01:16:25;;;;;;;2.90;2.67;;;1.10;99.90;;;;;;5039005;28;20048;-73
2022/03/08 01:18:51;;;;;;;4.70;2.63;;;1.00;99.90;;;;;;5020982;28;20458;-73
2022/03/08 01:21:17;;;;;;;4.80;3.20;;;1.00;99.90;;;;;;5003404;28;20054;-74
2022/03/08 01:23:43;;;;;;;3.88;3.03;;;0.90;99.90;;;;;;5024417;28;20095;-74
2022/03/08 01:26:09;;;;;;;4.47;3.30;;;0.90;99.90;;;;;;5021189;28;20136;-73
2022/03/08 01:28:35;;;;;;;3.60;2.90;;;0.90;99.90;;;;;;5028123;28;20045;-73
2022/03/08 01:31:01;;;;;;;4.07;3.20;;;0.90;99.90;;;;;;5028615;28;20124;-73
2022/03/08 01:33:27;;;;;;;3.63;3.22;;;1.00;99.90;;;;;;5026520;28;20099;-74
2022/03/08 01:35:54;;;;;;;4.53;3.70;;;1.00;99.90;;;;;;5023127;28;20434;-74
2022/03/08 01:38:20;;;;;;;5.47;3.45;;;1.00;99.90;;;;;;5027315;28;20057;-73
2022/03/08 01:40:46;;;;;;;6.07;3.75;;;0.90;99.90;;;;;;5028078;28;20468;-74
2022/03/08 01:43:11;;;;;;;7.50;3.78;;;0.90;99.90;;;;;;5027327;28;20060;-73
2022/03/08 01:45:37;;;;;;;4.10;3.58;;;0.90;99.90;;;;;;5026351;28;20140;-74
2022/03/08 01:48:03;;;;;;;9.98;3.90;;;0.80;99.90;;;;;;5011422;28;20147;-74
2022/03/08 01:50:29;;;;;;;4.45;3.90;;;0.80;99.90;;;;;;5028032;28;20107;-73
2022/03/08 01:52:55;;;;;;;6.60;4.03;;;0.80;99.90;;;;;;5027570;28;20049;-74
2022/03/08 01:55:22;;;;;;;4.30;3.83;;;0.90;99.90;;;;;;5010213;28;20056;-74
2022/03/08 01:57:49;;;;;;;5.55;4.45;;;0.90;99.90;;;;;;5016647;28;20045;-73
2022/03/08 02:00:20;;;;;;;6.00;4.28;;;0.90;99.90;;;;;;5026949;28;20077;-74
2022/03/08 02:02:46;;;;;;;5.13;4.10;;;0.90;99.90;;;;;;5018442;28;20041;-74
2022/03/08 02:05:12;;;;;;;8.63;4.18;;;0.90;99.90;;;;;;5027099;28;20175;-74
2022/03/08 02:07:39;;;;;;;6.93;4.10;;;1.00;99.90;;;;;;4999372;28;20045;-74
2022/03/08 02:10:07;;;;;;;4.10;3.75;;;0.90;99.90;;;;;;5029146;28;20088;-74
2022/03/08 02:12:33;;;;;;;4.38;3.97;;;0.80;99.90;;;;;;5010535;28;20037;-74
2022/03/08 02:14:59;;;;;;;5.63;4.38;;;0.80;99.90;;;;;;5027531;28;20434;-74
2022/03/08 02:17:24;;;;;;;6.55;4.07;;;0.70;99.90;;;;;;5002189;28;20128;-74
2022/03/08 02:19:56;;;;;;;5.47;4.28;;;0.70;99.90;;;;;;5027230;28;20037;-74
2022/03/08 02:22:23;;;;;;;5.03;4.32;;;0.70;99.90;;;;;;5016410;28;20128;-74
2022/03/08 02:24:48;;;;;;;6.65;4.28;;;0.70;99.90;;;;;;4967178;28;20056;-74
2022/03/08 02:27:14;;;;;;;4.75;3.75;;;0.60;99.90;;;;;;5024460;28;20083;-74
2022/03/08 02:29:40;;;;;;;7.72;3.75;;;0.50;99.90;;;;;;5024666;28;20457;-74
2022/03/08 02:32:06;;;;;;;5.13;4.00;;;0.50;99.90;;;;;;5026275;28;20532;-74
2022/03/08 02:34:32;;;;;;;4.55;3.83;;;0.60;99.90;;;;;;5009284;28;20037;-74
2022/03/08 02:37:06;;;;;;;5.53;4.10;;;0.70;99.90;;;;;;5010024;28;20056;-74
2022/03/08 02:39:32;;;;;;;4.75;4.10;;;1.00;99.90;;;;;;5022730;28;20518;-74
2022/03/08 02:41:57;;;;;;;5.53;3.75;;;1.00;99.90;;;;;;5023579;28;20041;-74
2022/03/08 02:44:24;;;;;;;9.43;4.88;;;1.00;99.90;;;;;;5007174;28;20045;-74
2022/03/08 02:46:51;;;;;;;7.43;4.05;;;1.10;99.90;;;;;;5025762;28;20040;-74
2022/03/08 02:49:17;;;;;;;5.38;4.00;;;1.10;99.90;;;;;;5018832;28;20049;-74
2022/03/08 02:51:43;;;;;;;5.88;4.38;;;1.00;99.90;;;;;;5008914;28;20390;-74
2022/03/08 02:54:08;;;;;;;7.45;4.30;;;1.00;99.90;;;;;;5010688;28;20523;-74
2022/03/08 02:56:34;;;;;;;8.27;4.07;;;1.00;99.90;;;;;;5025831;28;20139;-74
2022/03/08 02:59:00;;;;;;;5.57;4.40;;;1.00;99.90;;;;;;5006248;28;20048;-74
2022/03/08 03:01:26;;;;;;;4.80;4.30;;;1.00;99.90;;;;;;5023421;28;20103;-74
2022/03/08 03:03:52;;;;;;;6.90;5.47;;;1.00;99.90;;;;;;5011733;28;20042;-71
2022/03/08 03:06:18;;;;;;;8.40;4.90;;;1.00;99.90;;;;;;5026733;28;20529;-71
2022/03/08 03:08:44;;;;;;;7.90;5.30;;;0.90;99.90;;;;;;4994345;28;20548;-71
2022/03/08 03:11:09;;;;;;;8.90;4.90;;;1.00;99.90;;;;;;5028139;28;20045;-71
2022/03/08 03:13:35;;;;;;;8.27;5.03;;;1.00;99.90;;;;;;5025653;28;20045;-71
2022/03/08 03:16:01;;;;;;;10.85;5.57;;;1.00;99.90;;;;;;5010094;28;20050;-71
2022/03/08 03:18:27;;;;;;;12.52;6.18;;;1.10;99.90;;;;;;5025542;28;20045;-71
2022/03/08 03:20:52;;;;;;;7.47;4.90;;;1.00;99.90;;;;;;5021388;28;20645;-71
2022/03/08 03:23:18;;;;;;;9.63;6.07;;;1.00;99.90;;;;;;5018617;28;20072;-71
2022/03/08 03:25:44;;;;;;;8.40;5.40;;;0.90;99.90;;;;;;5025634;28;20483;-71
2022/03/08 03:28:10;;;;;;;9.35;6.03;;;0.90;99.90;;;;;;5015448;28;20037;-71
2022/03/08 03:30:35;;;;;;;10.93;5.97;;;0.80;99.90;;;;;;4992690;28;20124;-71
2022/03/08 03:33:03;;;;;;;11.00;5.30;;;0.80;99.90;;;;;;5024135;28;20076;-71
2022/03/08 03:35:30;;;;;;;8.50;5.93;;;0.80;99.90;;;;;;5025086;28;20049;-71
2022/03/08 03:37:55;;;;;;;8.48;6.35;;;0.80;99.90;;;;;;5014689;28;20403;-72
2022/03/08 03:40:21;;;;;;;6.90;5.32;;;1.00;99.90;;;;;;5025136;28;20045;-71
2022/03/08 03:42:47;;;;;;;12.32;5.53;;;1.00;99.90;;;;;;5018510;28;20041;-71
2022/03/08 03:45:13;;;;;;;8.07;5.63;;;1.00;99.90;;;;;;4963187;28;20055;-71
2022/03/08 03:47:39;;;;;;;10.35;5.78;;;1.00;99.90;;;;;;5024350;28;20049;-72
2022/03/08 03:50:06;;;;;;;9.45;5.80;;;0.90;99.90;;;;;;5025585;28;20051;-71
2022/03/08 03:52:32;;;;;;;8.15;5.90;;;0.90;99.90;;;;;;5025214;28;20385;-71
2022/03/08 03:54:58;;;;;;;8.18;5.80;;;0.80;99.90;;;;;;5014043;28;20056;-71
2022/03/08 03:57:24;;;;;;;8.45;5.72;;;0.80;99.90;;;;;;5024714;28;20075;-71
2022/03/08 03:59:50;;;;;;;11.43;6.53;;;0.80;99.90;;;;;;5025326;28;20096;-71
2022/03/08 04:02:15;;;;;;;12.05;6.43;;;0.70;99.90;;;;;;5019069;28;20112;-71
2022/03/08 04:04:41;;;;;;;9.88;6.63;;;0.60;99.90;;;;;;5019769;28;20132;-71
2022/03/08 04:07:07;;;;;;;13.48;6.95;;;0.60;99.90;;;;;;4991029;28;20124;-72
2022/03/08 04:09:32;;;;;;;9.88;6.80;;;0.60;99.90;;;;;;5024955;28;20045;-71
2022/03/08 04:11:58;;;;;;;7.03;6.10;;;0.60;99.90;;;;;;5009046;28;20542;-72
2022/03/08 04:14:25;;;;;;;7.75;6.35;;;0.60;99.90;;;;;;5008096;28;20037;-71
2022/03/08 04:16:52;;;;;;;10.07;6.35;;;0.50;99.90;;;;;;4999854;28;20124;-71
2022/03/08 04:19:18;;;;;;;10.45;6.40;;;0.40;99.90;;;;;;5024434;28;20046;-72
2022/03/08 04:21:44;;;;;;;11.65;6.20;;;0.30;99.90;;;;;;5025324;28;20068;-72
2022/03/08 04:24:10;;;;;;;16.92;6.53;;;0.20;99.90;;;;;;5025008;28;20121;-71
2022/03/08 04:26:37;;;;;;;10.90;6.55;;;0.10;99.90;;;;;;5016192;28;20041;-71
2022/03/08 04:29:03;;;;;;;7.20;5.78;;;0.00;99.90;;;;;;5008765;28;20076;-71
2022/03/08 04:31:29;;;;;;;10.00;6.38;;;-0.20;99.90;;;;;;5022856;28;20076;-71
2022/03/08 04:33:55;;;;;;;9.32;5.72;;;-0.20;99.90;;;;;;5025368;28;20124;-71
2022/03/08 04:36:21;;;;;;;8.80;6.10;;;-0.30;99.90;;;;;;5017133;28;20617;-71
2022/03/08 04:38:46;;;;;;;9.30;6.32;;;-0.40;99.90;;;;;;5025451;28;20045;-71
2022/03/08 04:41:12;;;;;;;8.02;6.13;;;-0.50;99.90;;;;;;5007613;28;20064;-71
2022/03/08 04:43:38;;;;;;;10.10;5.45;;;-0.50;99.90;;;;;;5008638;28;20053;-72
2022/03/08 04:46:04;;;;;;;10.18;6.22;;;-0.50;99.90;;;;;;5024221;28;20045;-72
2022/03/08 04:48:29;;;;;;;12.25;6.32;;;-0.50;99.90;;;;;;5011687;28;20037;-71
2022/03/08 04:50:55;;;;;;;10.40;6.22;;;-0.50;99.90;;;;;;5024958;28;20068;-71
2022/03/08 04:53:21;;;;;;;8.70;6.20;;;-0.50;99.90;;;;;;5024022;28;20061;-71
2022/03/08 04:55:46;;;;;;;10.38;6.47;;;-0.50;99.90;;;;;;5025039;28;20068;-72
2022/03/08 04:58:12;;;;;;;11.20;6.72;;;-0.50;99.90;;;;;;5011286;28;20072;-71
2022/03/08 05:00:39;;;;;;;9.63;6.53;;;-0.50;99.90;;;;;;5012513;28;20047;-71
2022/03/08 05:03:04;;;;;;;10.13;7.05;;;-0.50;99.90;;;;;;5022700;28;20051;-71
2022/03/08 05:05:34;;;;;;;8.23;6.07;;;-0.50;99.90;;;;;;5029383;28;20416;-71
2022/03/08 05:08:00;;;;;;;7.90;6.35;;;-0.60;99.90;;;;;;5023033;28;20049;-72
2022/03/08 05:10:26;;;;;;;11.27;7.00;;;-0.60;99.90;;;;;;5009182;28;20046;-71
2022/03/08 05:12:53;;;;;;;11.57;6.85;;;-0.60;99.90;;;;;;5012703;28;20049;-71
2022/03/08 05:15:18;;;;;;;12.55;7.55;;;-0.60;99.90;;;;;;5011700;28;20108;-72
2022/03/08 05:17:46;;;;;;;15.65;7.75;;;-0.70;99.90;;;;;;5028543;28;20484;-72
2022/03/08 05:20:12;;;;;;;8.52;6.40;;;-0.70;99.90;;;;;;5018127;28;20408;-71
2022/03/08 05:22:38;;;;;;;12.23;7.00;;;-0.70;99.90;;;;;;5028452;28;20096;-72
2022/03/08 05:25:04;;;;;;;11.38;6.47;;;-0.60;99.90;;;;;;5028081;28;20077;-72
2022/03/08 05:27:30;;;;;;;15.25;7.95;;;-0.70;99.90;;;;;;5011312;28;20057;-71
2022/03/08 05:29:56;;;;;;;12.65;7.10;;;-0.70;99.90;;;;;;5017859;28;20037;-72
2022/03/08 05:32:22;;;;;;;13.35;7.50;;;-0.70;99.90;;;;;;5009780;28;20137;-72
2022/03/08 05:34:47;;;;;;;12.18;7.45;;;-0.70;99.90;;;;;;5011583;28;20042;-72
2022/03/08 05:37:13;;;;;;;11.70;7.30;;;-0.70;99.90;;;;;;4992603;28;20038;-72
2022/03/08 05:39:39;;;;;;;13.93;7.70;;;-0.60;99.90;;;;;;5004212;28;20078;-72
2022/03/08 05:42:05;;;;;;;13.60;7.72;;;-0.50;99.90;;;;;;5010987;28;20052;-71
2022/03/08 05:44:31;;;;;;;13.65;7.05;;;-0.40;99.90;;;;;;4980506;28;20048;-72
2022/03/08 05:46:57;;;;;;;12.32;6.40;;;-0.40;99.90;;;;;;5013531;28;20158;-72
2022/03/08 05:49:23;;;;;;;11.63;7.30;;;-0.40;99.90;;;;;;4994641;28;20100;-72
2022/03/08 05:51:49;;;;;;;15.32;7.80;;;-0.30;99.90;;;;;;5013312;28;20200;-72
2022/03/08 05:54:15;;;;;;;16.13;7.78;;;-0.30;99.90;;;;;;5012354;28;20056;-72
2022/03/08 05:56:40;;;;;;;16.42;8.00;;;-0.30;99.90;;;;;;5011485;28;20404;-72
2022/03/08 05:59:06;;;;;;;13.50;7.82;;;-0.20;99.90;;;;;;5010803;28;20057;-73
2022/03/08 06:01:32;;;;;;;11.43;7.43;;;-0.10;99.90;;;;;;5013027;28;20443;-72
2022/03/08 06:03:58;;;;;;;12.25;7.57;;;-0.10;99.90;;;;;;4995225;28;20037;-71
2022/03/08 06:06:23;;;;;;;14.85;8.57;;;-0.10;99.90;;;;;;5019274;28;20089;-71
2022/03/08 06:08:49;;;;;;;12.60;7.93;;;-0.10;99.90;;;;;;4998723;28;20053;-72
2022/03/08 06:11:16;;;;;;;16.33;8.48;;;0.00;99.90;;;;;;5025209;28;20041;-72
2022/03/08 06:13:41;;;;;;;11.27;7.53;;;0.00;99.90;;;;;;5028226;28;20573;-72
2022/03/08 06:16:07;;;;;;;18.63;7.45;;;0.00;99.90;;;;;;5026251;28;20041;-72
2022/03/08 06:18:33;;;;;;;14.68;8.57;;;0.10;99.90;;;;;;5009106;28;20041;-72
2022/03/08 06:20:59;;;;;;;13.75;9.10;;;0.10;99.90;;;;;;5010218;28;20057;-72
2022/03/08 06:23:24;;;;;;;14.68;8.57;;;0.20;99.90;;;;;;5010824;28;20419;-72
2022/03/08 06:25:51;;;;;;;16.38;8.55;;;0.20;99.90;;;;;;5010911;28;20049;-72
2022/03/08 06:28:17;;;;;;;15.00;8.85;;;0.20;99.90;;;;;;5006076;28;20033;-72
2022/03/08 06:30:42;;;;;;;11.93;8.45;;;0.20;99.90;;;;;;5004214;28;20072;-72
2022/03/08 06:33:08;;;;;;;15.43;6.40;;;0.30;99.90;;;;;;5016371;28;20052;-72
2022/03/08 06:35:34;;;;;;;14.82;8.55;;;0.30;99.90;;;;;;5027614;28;20045;-72
2022/03/08 06:38:00;;;;;;;13.98;8.75;;;0.40;99.90;;;;;;5025934;28;20041;-72
2022/03/08 06:40:26;;;;;;;18.75;9.05;;;0.40;99.90;;;;;;5027270;28;20099;-72
2022/03/08 06:42:51;;;;;;;18.60;9.32;;;0.50;99.90;;;;;;5027017;28;20045;-72
2022/03/08 06:45:17;;;;;;;15.73;8.02;;;0.70;99.90;;;;;;5021772;28;20049;-72
2022/03/08 06:47:43;;;;;;;18.52;9.40;;;0.80;99.90;;;;;;5020119;28;20056;-72
2022/03/08 06:50:09;;;;;;;12.65;8.30;;;0.90;99.90;;;;;;5025893;28;20068;-72
2022/03/08 06:52:35;;;;;;;15.85;8.65;;;0.80;99.90;;;;;;5020471;28;20049;-72
2022/03/08 06:55:08;;;;;;;14.30;9.32;;;0.70;99.90;;;;;;5026402;28;20448;-72
2022/03/08 06:57:33;;;;;;;16.40;8.90;;;0.70;99.90;;;;;;5016638;28;20048;-72
2022/03/08 06:59:59;;;;;;;20.30;9.35;;;0.70;99.90;;;;;;4994110;28;20049;-72
2022/03/08 07:02:26;;;;;;;14.98;9.15;;;0.80;99.90;;;;;;5019633;28;20064;-74
2022/03/08 07:04:51;;;;;;;16.33;8.43;;;0.90;99.90;;;;;;5027255;28;20469;-75
2022/03/08 07:07:17;;;;;;;14.65;7.90;;;0.90;99.90;;;;;;4998259;28;20128;-74
2022/03/08 07:09:43;;;;;;;16.65;9.30;;;1.00;99.90;;;;;;5027132;28;20053;-74
2022/03/08 07:12:09;;;;;;;17.33;9.68;;;1.00;99.90;;;;;;5016077;28;20033;-75
2022/03/08 07:14:35;;;;;;;15.82;8.98;;;1.10;99.90;;;;;;5026472;28;20056;-74
2022/03/08 07:17:00;;;;;;;14.63;8.25;;;1.20;99.90;;;;;;5020343;28;20037;-75
2022/03/08 07:19:26;;;;;;;15.80;8.68;;;1.30;99.90;;;;;;5024319;28;20103;-74
2022/03/08 07:21:52;;;;;;;13.27;9.18;;;1.40;99.90;;;;;;5001752;28;20049;-75
2022/03/08 07:24:17;;;;;;;13.57;9.27;;;1.40;99.90;;;;;;4992143;28;20051;-75
2022/03/08 07:26:43;;;;;;;19.23;9.00;;;1.50;99.90;;;;;;5010144;28;20115;-75
2022/03/08 07:29:09;;;;;;;17.02;8.80;;;1.50;99.90;;;;;;5008286;28;20053;-75
2022/03/08 07:31:35;;;;;;;19.95;10.55;;;1.60;99.90;;;;;;5009878;28;20555;-75
2022/03/08 07:34:00;;;;;;;15.80;9.82;;;1.70;99.90;;;;;;5005305;28;20052;-76
2022/03/08 07:36:27;;;;;;;18.00;10.18;;;1.80;99.90;;;;;;5009132;28;20037;-75
2022/03/08 07:38:52;;;;;;;22.67;10.32;;;1.90;99.90;;;;;;5009663;28;20425;-75
2022/03/08 07:41:18;;;;;;;15.63;10.55;;;1.90;99.90;;;;;;4988870;28;20460;-75
2022/03/08 07:43:44;;;;;;;17.58;9.55;;;2.00;99.90;;;;;;5006069;28;20084;-75
2022/03/08 07:46:10;;;;;;;16.88;10.32;;;2.10;99.90;;;;;;4991926;28;20041;-75
2022/03/08 07:48:36;;;;;;;15.90;9.27;;;2.20;99.90;;;;;;5002875;28;20129;-75
2022/03/08 07:51:03;;;;;;;19.25;10.50;;;2.20;99.90;;;;;;5000471;28;20044;-75
2022/03/08 07:53:28;;;;;;;15.52;9.77;;;2.30;99.90;;;;;;5008897;28;20041;-75
2022/03/08 07:55:54;;;;;;;18.98;9.65;;;2.40;99.90;;;;;;4999646;28;20378;-75
2022/03/08 07:58:20;;;;;;;17.85;10.38;;;2.50;99.90;;;;;;5006820;28;20088;-75
2022/03/08 08:00:46;;;;;;;16.13;10.70;;;2.60;99.90;;;;;;4987656;28;20052;-76
2022/03/08 08:03:12;;;;;;;19.40;10.77;;;2.70;99.90;;;;;;5018452;28;20171;-76
2022/03/08 08:05:39;;;;;;;24.20;11.15;;;2.80;99.90;;;;;;5002325;28;20049;-76
2022/03/08 08:08:05;;;;;;;22.23;10.32;;;2.90;99.90;;;;;;5000495;28;20049;-76
2022/03/08 08:10:32;;;;;;;18.50;10.00;;;3.00;99.90;;;;;;5002786;28;20050;-76
2022/03/08 08:12:57;;;;;;;15.15;9.70;;;3.10;99.90;;;;;;4987236;28;20058;-76
2022/03/08 08:15:23;;;;;;;18.70;8.93;;;3.20;99.90;;;;;;4987800;28;20785;-76
2022/03/08 08:17:49;;;;;;;17.50;11.48;;;3.20;99.90;;;;;;4987054;28;20045;-76
2022/03/08 08:20:15;;;;;;;12.68;7.70;;;3.40;99.90;;;;;;4998409;28;20510;-76
2022/03/08 08:22:41;;;;;;;19.02;10.77;;;3.50;99.90;;;;;;4952473;28;20055;-76
2022/03/08 08:25:10;;;;;;;16.80;10.80;;;3.60;99.90;;;;;;4945678;28;20039;-77
2022/03/08 08:27:37;;;;;;;15.60;9.80;;;3.70;99.90;;;;;;4967160;28;20049;-76
2022/03/08 08:30:05;;;;;;;17.30;9.02;;;3.80;99.90;;;;;;4937911;28;20551;-77
2022/03/08 08:32:30;;;;;;;16.27;10.32;;;3.90;99.90;;;;;;4982363;28;20087;-77
2022/03/08 08:34:56;;;;;;;19.38;10.88;;;4.00;99.90;;;;;;4960658;28;20128;-77
2022/03/08 08:37:22;;;;;;;17.63;10.00;;;4.10;99.90;;;;;;4973264;28;20498;-77
2022/03/08 08:39:48;;;;;;;17.00;9.82;;;4.10;99.90;;;;;;4971982;28;20042;-76
2022/03/08 08:42:14;;;;;;;17.40;11.05;;;4.30;99.90;;;;;;4960684;28;20125;-77
2022/03/08 08:44:39;;;;;;;16.58;8.35;;;4.40;99.90;;;;;;4980340;28;20488;-77
2022/03/08 08:47:05;;;;;;;9.10;5.50;;;4.50;99.90;;;;;;4951886;28;20038;-77
2022/03/08 08:49:31;;;;;;;19.45;10.75;;;4.50;99.90;;;;;;4969298;28;20510;-77
2022/03/08 08:51:57;;;;;;;16.75;8.23;;;4.70;99.90;;;;;;4954575;28;20145;-77
2022/03/08 08:54:23;;;;;;;19.17;10.98;;;4.80;99.90;;;;;;4977118;28;20046;-77
2022/03/08 08:56:49;;;;;;;15.80;9.55;;;4.90;99.90;;;;;;4963370;28;20113;-77
2022/03/08 08:59:14;;;;;;;16.63;10.48;;;5.00;99.90;;;;;;4974494;28;20131;-76
2022/03/08 09:01:40;;;;;;;14.63;7.65;;;5.10;99.90;;;;;;4973233;28;20113;-77
2022/03/08 09:04:06;;;;;;;16.08;9.38;;;5.30;99.90;;;;;;4972889;28;20037;-77
2022/03/08 09:06:32;;;;;;;17.17;9.73;;;5.40;99.90;;;;;;4958867;28;20338;-77
2022/03/08 09:08:57;;;;;;;21.80;10.43;;;5.60;99.90;;;;;;4981163;28;20054;-77
2022/03/08 09:11:24;;;;;;;14.70;7.78;;;5.70;99.90;;;;;;4972390;28;20121;-77
2022/03/08 09:13:49;;;;;;;11.68;6.93;;;5.90;99.90;;;;;;4965190;28;20466;-76
2022/03/08 09:16:15;;;;;;;13.88;9.07;;;6.10;99.90;;;;;;4968053;28;20053;-76
2022/03/08 09:18:43;;;;;;;12.20;7.68;;;6.30;99.90;;;;;;4968591;28;20050;-77
2022/03/08 09:21:10;;;;;;;12.73;6.97;;;6.30;99.90;;;;;;4979876;28;20548;-76
2022/03/08 09:23:37;;;;;;;9.68;6.32;;;6.50;99.90;;;;;;4988656;28;20074;-76
2022/03/08 09:26:04;;;;;;;6.72;5.57;;;6.40;99.90;;;;;;4971055;28;20053;-76
2022/03/08 09:28:29;;;;;;;10.65;6.63;;;6.50;99.90;;;;;;4988351;28;20046;-76
2022/03/08 09:30:55;;;;;;;10.18;6.95;;;6.70;99.90;;;;;;4955285;28;20141;-76
2022/03/08 09:33:21;;;;;;;9.70;7.10;;;6.80;99.60;;;;;;4985577;28;20157;-76
2022/03/08 09:35:47;;;;;;;8.70;6.47;;;6.90;98.60;;;;;;4986892;28;20046;-76
2022/03/08 09:38:13;;;;;;;7.03;5.20;;;7.00;99.90;;;;;;4984282;28;20043;-76
2022/03/08 09:40:40;;;;;;;8.20;5.38;;;7.10;95.70;;;;;;4986140;28;20101;-76
2022/03/08 09:43:06;;;;;;;8.07;5.65;;;7.10;96.00;;;;;;4991261;28;20045;-76
2022/03/08 09:45:34;;;;;;;11.48;5.32;;;7.30;95.20;;;;;;4985295;28;20061;-75
2022/03/08 09:48:01;;;;;;;6.28;4.00;;;7.20;95.40;;;;;;4987843;28;20050;-76
2022/03/08 09:50:29;;;;;;;8.27;5.35;;;7.20;93.60;;;;;;4973580;28;20034;-76
2022/03/08 09:52:57;;;;;;;7.22;4.30;;;7.30;95.30;;;;;;4990391;28;20042;-76
2022/03/08 09:55:25;;;;;;;6.22;3.78;;;7.30;94.00;;;;;;4989109;28;20039;-77
2022/03/08 09:57:52;;;;;;;8.63;5.50;;;7.40;92.90;;;;;;4991562;28;20042;-76
2022/03/08 10:00:18;;;;;;;7.13;5.70;;;7.40;93.30;;;;;;4989822;28;20528;-75
2022/03/08 10:02:49;;;;;;;6.63;4.93;;;7.60;94.30;;;;;;4991998;28;20132;-76
2022/03/08 10:05:18;;;;;;;12.48;4.30;;;7.60;93.50;;;;;;4974526;28;20129;-75
2022/03/08 10:08:04;;;;;;;3.85;2.65;;;7.60;92.20;;;;;;4992327;28;20054;-76
2022/03/08 10:10:31;;;;;;;6.07;4.72;;;7.70;89.80;;;;;;5001812;28;20108;-75
2022/03/08 10:12:58;;;;;;;5.30;3.33;;;7.80;91.20;;;;;;5007516;28;20107;-76
2022/03/08 10:15:24;;;;;;;4.90;3.67;;;7.80;88.10;;;;;;5007742;28;20053;-76
2022/03/08 10:17:50;;;;;;;6.80;4.18;;;7.90;86.90;;;;;;5006772;28;20053;-75
2022/03/08 10:20:28;;;;;;;3.42;2.35;;;7.90;84.40;;;;;;4998770;28;20053;-75
2022/03/08 10:22:54;;;;;;;3.88;3.30;;;7.80;87.80;;;;;;4975001;28;20060;-75
2022/03/08 10:25:24;;;;;;;12.50;5.32;;;7.90;84.90;;;;;;5006853;28;20400;-75
2022/03/08 10:27:56;;;;;;;6.72;4.38;;;8.10;90.50;;;;;;4991124;28;20455;-75
2022/03/08 10:30:23;;;;;;;8.60;3.28;;;8.20;83.90;;;;;;5000282;28;20046;-75
2022/03/08 10:32:51;;;;;;;7.03;4.80;;;8.10;85.30;;;;;;4996427;28;20042;-76
2022/03/08 10:35:28;;;;;;;4.13;3.17;;;8.20;84.10;;;;;;4990482;28;20081;-75
2022/03/08 10:38:00;;;;;;;4.55;3.72;;;8.20;86.70;;;;;;4978447;28;20172;-76
2022/03/08 10:40:32;;;;;;;17.15;6.60;;;8.30;81.70;;;;;;4958034;28;20030;-76
2022/03/08 10:43:01;;;;;;;6.25;4.35;;;8.50;86.80;;;;;;4995313;28;20042;-76
2022/03/08 10:45:29;;;;;;;4.80;3.67;;;8.50;83.30;;;;;;4990350;28;20046;-76
2022/03/08 10:47:56;;;;;;;6.43;4.38;;;8.60;85.70;;;;;;4993363;28;20052;-76
2022/03/08 10:50:29;;;;;;;6.85;3.83;;;8.70;88.60;;;;;;4994136;28;20061;-75
2022/03/08 10:52:57;;;;;;;4.18;3.10;;;8.80;81.80;;;;;;4973435;28;20137;-76
2022/03/08 10:55:28;;;;;;;3.97;2.97;;;8.80;75.60;;;;;;4977451;28;20038;-76
2022/03/08 10:57:58;;;;;;;4.63;2.95;;;8.70;73.30;;;;;;4995772;28;20097;-75
2022/03/08 11:00:41;;;;;;;3.72;2.95;;;8.70;74.90;;;;;;4989231;28;20439;-76
2022/03/08 11:03:15;;;;;;;7.20;4.07;;;8.70;72.20;;;;;;4995335;28;20408;-75
2022/03/08 11:05:43;;;;;;;4.63;3.13;;;8.80;75.50;;;;;;4989324;28;20116;-75
2022/03/08 11:08:09;;;;;;;10.00;3.75;;;8.90;75.40;;;;;;4994074;28;20045;-76
2022/03/08 11:10:36;;;;;;;3.47;2.67;;;8.90;74.20;;;;;;4994376;28;20038;-76
2022/03/08 11:13:03;;;;;;;3.15;2.72;;;8.80;68.20;;;;;;4981999;28;20065;-75
2022/03/08 11:15:31;;;;;;;8.07;3.17;;;8.90;74.90;;;;;;4994645;28;20128;-75
2022/03/08 11:17:59;;;;;;;3.53;2.75;;;8.80;73.40;;;;;;4994311;28;20122;-76
2022/03/08 11:20:27;;;;;;;7.20;3.80;;;8.90;70.20;;;;;;4976377;28;20050;-76
2022/03/08 11:22:56;;;;;;;4.93;4.15;;;8.90;72.60;;;;;;4989100;28;20256;-76
2022/03/08 11:25:29;;;;;;;11.10;2.50;;;9.00;73.40;;;;;;4994856;28;20042;-76
2022/03/08 11:27:55;;;;;;;4.43;3.55;;;9.10;74.40;;;;;;4988945;28;20124;-76
2022/03/08 11:30:25;;;;;;;5.80;3.22;;;9.00;76.20;;;;;;4988725;28;20292;-76
2022/03/08 11:33:23;;;;;;;5.38;3.28;;;9.10;72.20;;;;;;4988804;28;20077;-76
2022/03/08 11:36:08;;;;;;;6.60;4.05;;;9.10;73.90;;;;;;4985044;28;20496;-75
2022/03/08 11:38:34;;;;;;;6.65;2.58;;;9.20;77.30;;;;;;5003756;28;20124;-76
2022/03/08 11:41:00;;;;;;;5.22;3.58;;;9.30;74.50;;;;;;4986813;28;20053;-76
2022/03/08 11:43:36;;;;;;;5.40;3.15;;;9.30;73.60;;;;;;4990183;28;20481;-76
2022/03/08 11:46:13;;;;;;;4.93;3.63;;;9.40;70.20;;;;;;4987787;28;20046;-76
2022/03/08 11:48:54;;;;;;;2.78;1.88;;;9.50;71.90;;;;;;4988094;28;20038;-76
2022/03/08 11:51:20;;;;;;;;;;;9.60;70.00;;;;;;4974031;28;20042;-75
2022/03/08 11:53:47;;;;;;;1.58;1.48;;;9.60;68.40;;;;;;4987543;28;19945;-76
2022/03/08 11:56:17;;;;;;;3.88;2.65;;;9.60;68.60;;;;;;4989514;28;20081;-76
2022/03/08 11:58:47;;;;;;;3.47;2.17;;;9.50;67.60;;;;;;4972461;28;20403;-76
2022/03/08 12:01:34;;;;;;;5.20;3.25;;;9.40;68.20;;;;;;4987385;28;20046;-76
2022/03/08 12:04:07;;;;;;;7.50;2.50;;;9.50;73.00;;;;;;4987389;28;20164;-76
2022/03/08 12:06:35;;;;;;;5.30;3.25;;;9.60;70.30;;;;;;4983916;28;20042;-76
2022/03/08 12:09:17;;;;;;;4.35;3.00;;;9.80;69.50;;;;;;4970860;28;20527;-76
2022/03/08 12:12:03;;;;;;;3.63;2.90;;;9.90;67.10;;;;;;4989720;28;20416;-75
2022/03/08 12:14:37;;;;;;;4.55;2.75;;;10.00;69.30;;;;;;4988480;28;20045;-76
2022/03/08 12:17:12;;;;;;;3.05;2.50;;;9.90;65.80;;;;;;4985017;28;20071;-76
2022/03/08 12:19:46;;;;;;;5.18;4.35;;;9.70;63.90;;;;;;4980480;28;20046;-76
2022/03/08 12:22:20;;;;;;;2.95;2.42;;;9.80;71.30;;;;;;4982004;28;20129;-76
2022/03/08 12:24:51;;;;;;;6.80;2.80;;;10.00;66.50;;;;;;4989115;28;20057;-76
2022/03/08 12:27:18;;;;;;;4.07;1.60;;;10.10;67.30;;;;;;4984320;28;20035;-76
2022/03/08 12:30:06;;;;;;;2.63;2.42;;;10.20;63.00;;;;;;4985191;28;20044;-76
2022/03/08 12:32:41;;;;;;;2.58;2.38;;;10.00;59.50;;;;;;4967978;28;20063;-75
2022/03/08 12:35:09;;;;;;;1.40;1.30;;;10.00;62.30;;;;;;4985492;28;20383;-76
2022/03/08 12:37:45;;;;;;;4.85;2.33;;;10.10;63.80;;;;;;4953010;28;20042;-76
2022/03/08 12:40:24;;;;;;;9.23;2.85;;;10.30;66.60;;;;;;4956957;28;20416;-76
2022/03/08 12:42:55;;;;;;;3.65;2.20;;;10.30;59.60;;;;;;4984766;28;20046;-75
2022/03/08 12:45:33;;;;;;;2.13;1.88;;;10.20;59.00;;;;;;4984414;28;20057;-76
2022/03/08 12:48:09;;;;;;;2.10;2.00;;;10.20;57.00;;;;;;4976269;28;20046;-76
2022/03/08 12:50:53;;;;;;;2.50;2.30;;;10.20;61.20;;;;;;4990124;28;20096;-75